createdAt,value
2019-03-16T00:03:19.098Z,12.15
2019-03-16T00:08:21.389Z,11.93
2019-03-16T00:13:24.191Z,11.79
2019-03-16T00:18:26.546Z,12.01
2019-03-16T00:23:28.579Z,11.86
2019-03-16T00:28:30.787Z,11.88
2019-03-16T00:33:36.306Z,11.97
2019-03-16T00:38:38.405Z,11.67
2019-03-16T00:43:40.433Z,11.25
2019-03-16T00:48:42.747Z,11.29
2019-03-16T00:53:46.137Z,11.21
2019-03-16T00:58:48.367Z,11.46
2019-03-16T01:03:50.616Z,11.08
2019-03-16T01:08:52.850Z,11.50
2019-03-16T01:13:55.166Z,11.44
2019-03-16T01:18:58.970Z,11.62
2019-03-16T01:24:01.306Z,11.68
2019-03-16T01:29:03.563Z,11.57
2019-03-16T01:34:05.840Z,11.35
2019-03-16T01:39:07.869Z,11.40
2019-03-16T01:44:09.933Z,11.52
2019-03-16T01:49:12.029Z,11.37
2019-03-16T01:54:16.582Z,11.20
2019-03-16T01:59:18.787Z,11.29
2019-03-16T02:04:21.049Z,11.42
2019-03-16T02:09:23.291Z,11.30
2019-03-16T02:14:25.891Z,11.47
2019-03-16T02:19:29.801Z,11.25
2019-03-16T02:24:33.299Z,11.60
2019-03-16T02:29:35.347Z,11.47
2019-03-16T02:34:37.729Z,11.65
2019-03-16T02:39:39.812Z,11.63
2019-03-16T02:44:42.095Z,11.52
2019-03-16T02:49:44.245Z,11.61
2019-03-16T02:54:47.685Z,11.39
2019-03-16T02:59:51.117Z,11.11
2019-03-16T03:04:53.149Z,11.25
2019-03-16T03:09:55.166Z,11.14
2019-03-16T03:15:01.444Z,10.89
2019-03-16T03:20:04.108Z,10.91
2019-03-16T03:25:09.075Z,11.12
2019-03-16T03:30:11.193Z,10.97
2019-03-16T03:35:13.339Z,11.11
2019-03-16T03:40:15.363Z,10.99
2019-03-16T03:45:18.396Z,11.09
2019-03-16T03:50:20.464Z,10.67
2019-03-16T03:55:22.815Z,10.95
2019-03-16T04:00:24.898Z,10.64
2019-03-16T04:05:27.113Z,10.43
2019-03-16T04:10:29.192Z,10.53
2019-03-16T04:15:31.336Z,10.64
2019-03-16T04:20:33.432Z,10.63
2019-03-16T04:25:38.473Z,10.64
2019-03-16T04:30:41.025Z,10.38
2019-03-16T04:35:43.722Z,10.81
2019-03-16T04:40:48.788Z,10.61
2019-03-16T04:45:50.814Z,10.64
2019-03-16T04:50:52.879Z,10.72
2019-03-16T04:55:55.090Z,10.37
2019-03-16T05:00:57.090Z,10.40
2019-03-16T05:05:59.361Z,10.18
2019-03-16T05:11:01.526Z,10.31
2019-03-16T05:16:03.763Z,10.22
2019-03-16T05:21:05.752Z,10.16
2019-03-16T05:26:07.902Z,9.97
2019-03-16T05:31:10.366Z,10.26
2019-03-16T05:36:15.069Z,11.21
2019-03-16T05:41:20.232Z,10.98
2019-03-16T05:46:22.277Z,11.62
2019-03-16T05:51:24.325Z,12.35
2019-03-16T05:56:26.625Z,12.69
2019-03-16T06:01:28.696Z,12.07
2019-03-16T06:06:30.926Z,10.43
2019-03-16T06:11:33.040Z,10.47
2019-03-16T06:16:35.353Z,10.40
2019-03-16T06:21:39.089Z,10.13
2019-03-16T06:26:43.079Z,13.47
2019-03-16T06:31:45.134Z,11.87
2019-03-16T06:36:47.380Z,11.18
2019-03-16T06:41:49.396Z,11.21
2019-03-16T06:46:51.565Z,11.32
2019-03-16T06:51:56.639Z,12.12
2019-03-16T06:57:01.775Z,12.79
2019-03-16T07:02:05.494Z,12.14
2019-03-16T07:07:07.821Z,12.02
2019-03-16T07:12:11.760Z,11.10
2019-03-16T07:17:13.926Z,11.52
2019-03-16T07:22:18.675Z,12.41
2019-03-16T07:27:26.062Z,12.35
2019-03-16T07:32:24.692Z,11.13
2019-03-16T07:37:28.052Z,11.71
2019-03-16T07:42:32.980Z,11.75
2019-03-16T07:47:35.297Z,12.16
2019-03-16T07:52:37.323Z,12.24
2019-03-16T07:57:40.833Z,12.41
2019-03-16T08:02:43.313Z,12.37
2019-03-16T08:07:45.440Z,12.44
2019-03-16T08:12:47.625Z,12.67
2019-03-16T08:17:54.162Z,12.92
2019-03-16T08:22:56.429Z,12.93
2019-03-16T08:28:00.848Z,12.72
2019-03-16T08:33:03.173Z,12.78
2019-03-16T08:38:05.205Z,14.12
2019-03-16T08:43:07.255Z,13.21
2019-03-16T08:48:21.821Z,13.57
2019-03-16T08:53:16.377Z,13.26
2019-03-16T08:58:18.641Z,13.39
2019-03-16T09:03:20.689Z,13.03
2019-03-16T09:08:23.809Z,12.97
2019-03-16T09:13:26.024Z,13.14
2019-03-16T09:18:28.307Z,13.11
2019-03-16T09:23:30.419Z,12.96
2019-03-16T09:28:35.403Z,12.89
2019-03-16T09:33:37.539Z,13.16
2019-03-16T09:38:41.469Z,13.35
2019-03-16T09:43:43.644Z,12.91
2019-03-16T09:48:48.981Z,13.60
2019-03-16T09:53:51.005Z,13.53
2019-03-16T09:58:53.296Z,12.90
2019-03-16T10:03:55.450Z,13.61
2019-03-16T10:08:58.624Z,13.61
2019-03-16T10:14:02.418Z,12.98
2019-03-16T10:19:04.660Z,14.34
2019-03-16T10:24:07.765Z,14.13
2019-03-16T10:29:11.665Z,14.13
2019-03-16T10:34:13.668Z,14.17
2019-03-16T10:39:18.456Z,13.78
2019-03-16T10:44:20.680Z,13.28
2019-03-16T10:49:22.690Z,13.47
2019-03-16T10:54:26.824Z,13.27
2019-03-16T10:59:28.903Z,14.13
2019-03-16T11:04:32.757Z,13.88
2019-03-16T11:09:39.617Z,13.79
2019-03-16T11:14:41.769Z,13.95
2019-03-16T11:19:43.836Z,13.34
2019-03-16T11:24:45.956Z,12.94
2019-03-16T11:29:48.026Z,14.90
2019-03-16T11:34:52.355Z,14.54
2019-03-16T11:39:54.394Z,14.86
2019-03-16T11:44:56.476Z,14.93
2019-03-16T11:50:00.956Z,14.48
2019-03-16T11:55:05.744Z,14.20
2019-03-16T12:00:08.561Z,14.13
2019-03-16T12:05:13.377Z,15.31
2019-03-16T12:10:16.494Z,14.84
2019-03-16T12:15:19.944Z,14.44
2019-03-16T12:20:22.245Z,14.02
2019-03-16T12:25:24.558Z,13.81
2019-03-16T12:30:26.606Z,14.27
2019-03-16T12:35:30.413Z,13.92
2019-03-16T12:40:33.366Z,14.34
2019-03-16T12:45:35.547Z,14.54
2019-03-16T12:50:37.712Z,14.18
2019-03-16T12:55:40.335Z,14.00
2019-03-16T13:00:43.763Z,13.77
2019-03-16T13:05:45.882Z,13.52
2019-03-16T13:10:49.034Z,13.29
2019-03-16T13:15:51.505Z,13.68
2019-03-16T13:20:53.871Z,14.56
2019-03-16T13:26:00.940Z,14.10
2019-03-16T13:31:03.122Z,13.78
2019-03-16T13:36:05.795Z,13.95
2019-03-16T13:41:07.969Z,13.85
2019-03-16T13:46:10.250Z,13.66
2019-03-16T13:51:12.549Z,13.57
2019-03-16T13:56:14.908Z,13.89
2019-03-16T14:01:17.375Z,13.79
2019-03-16T14:06:19.486Z,13.60
2019-03-16T14:11:21.672Z,13.98
2019-03-16T14:16:25.796Z,13.59
2019-03-16T14:21:28.368Z,13.66
2019-03-16T14:26:35.487Z,13.83
2019-03-16T14:31:37.578Z,13.51
2019-03-16T14:36:39.682Z,13.53
2019-03-16T14:41:45.089Z,13.59
2019-03-16T14:46:48.309Z,13.48
2019-03-16T14:51:52.313Z,13.48
2019-03-16T14:57:01.863Z,13.33
2019-03-16T15:02:04.725Z,13.39
2019-03-16T15:07:06.891Z,13.31
2019-03-16T15:12:09.238Z,13.49
2019-03-16T15:17:13.727Z,13.31
2019-03-16T15:22:15.882Z,13.26
2019-03-16T15:27:17.989Z,13.68
2019-03-16T15:32:24.820Z,13.25
2019-03-16T15:37:27.290Z,13.22
2019-03-16T15:42:29.356Z,13.22
2019-03-16T15:47:33.127Z,13.30
2019-03-16T15:52:37.385Z,13.16
2019-03-16T15:57:42.385Z,13.12
2019-03-16T16:02:47.646Z,12.98
2019-03-16T16:07:50.106Z,12.86
2019-03-16T16:12:54.254Z,13.15
2019-03-16T16:18:01.567Z,13.19
2019-03-16T16:23:03.788Z,13.06
2019-03-16T16:28:06.133Z,12.94
2019-03-16T16:33:13.084Z,12.82
2019-03-16T16:38:15.498Z,12.82
2019-03-16T16:43:17.922Z,12.89
2019-03-16T16:48:22.453Z,13.02
2019-03-16T16:53:27.761Z,13.02
2019-03-16T16:58:29.823Z,12.89
2019-03-16T17:03:31.892Z,12.87
2019-03-16T17:08:42.741Z,12.65
2019-03-16T17:13:44.855Z,12.75
2019-03-16T17:18:46.999Z,12.73
2019-03-16T17:23:49.122Z,12.80
2019-03-16T17:28:51.334Z,12.88
2019-03-16T17:33:53.399Z,12.75
2019-03-16T17:38:55.670Z,12.54
2019-03-16T17:43:59.899Z,12.84
2019-03-16T17:49:01.982Z,12.84
2019-03-16T17:54:04.069Z,12.77
2019-03-16T17:59:07.276Z,13.06
2019-03-16T18:04:12.396Z,12.59
2019-03-16T18:09:14.576Z,12.69
2019-03-16T18:14:19.739Z,12.36
2019-03-16T18:19:21.766Z,12.42
2019-03-16T18:24:23.838Z,12.51
2019-03-16T18:29:25.867Z,12.51
2019-03-16T18:34:27.892Z,12.63
2019-03-16T18:39:31.124Z,12.60
2019-03-16T18:44:37.757Z,12.64
2019-03-16T18:49:42.789Z,12.54
2019-03-16T18:54:44.886Z,12.52
2019-03-16T18:59:50.742Z,12.59
2019-03-16T19:04:52.793Z,12.40
2019-03-16T19:09:54.847Z,12.62
2019-03-16T19:15:04.250Z,12.56
2019-03-16T19:20:07.437Z,12.56
2019-03-16T19:25:15.061Z,12.70
2019-03-16T19:30:20.869Z,12.44
2019-03-16T19:35:25.390Z,12.55
2019-03-16T19:40:32.034Z,12.67
2019-03-16T19:45:34.139Z,12.63
2019-03-16T19:50:37.193Z,12.48
2019-03-16T19:55:42.670Z,12.56
2019-03-16T20:00:48.280Z,12.56
2019-03-16T20:05:53.042Z,12.50
2019-03-16T20:11:06.423Z,12.61
2019-03-16T20:16:08.806Z,12.67
2019-03-16T20:21:10.954Z,12.71
2019-03-16T20:26:16.791Z,12.54
2019-03-16T20:31:18.822Z,12.52
2019-03-16T20:36:20.981Z,12.57
2019-03-16T20:41:35.511Z,12.35
2019-03-16T20:46:30.051Z,12.56
2019-03-16T20:51:32.113Z,12.39
2019-03-16T20:56:37.441Z,12.21
2019-03-16T21:01:39.524Z,12.46
2019-03-16T21:06:43.498Z,12.23
2019-03-16T21:11:45.547Z,12.28
2019-03-16T21:16:49.622Z,12.23
2019-03-16T21:21:51.948Z,12.08
2019-03-16T21:26:54.304Z,12.16
2019-03-16T21:31:56.337Z,12.20
2019-03-16T21:36:59.590Z,12.29
2019-03-16T21:42:04.687Z,12.28
2019-03-16T21:47:06.943Z,12.37
2019-03-16T21:52:09.036Z,12.27
2019-03-16T21:57:11.400Z,12.14
2019-03-16T22:02:13.871Z,12.12
2019-03-16T22:07:16.127Z,11.96
2019-03-16T22:12:23.511Z,11.99
2019-03-16T22:17:28.036Z,11.76
2019-03-16T22:22:30.122Z,11.83
2019-03-16T22:27:32.161Z,12.23
2019-03-16T22:32:34.386Z,12.24
2019-03-16T22:37:37.811Z,12.14
2019-03-16T22:42:39.948Z,11.90
2019-03-16T22:47:42.381Z,11.85
2019-03-16T22:52:47.256Z,11.90
2019-03-16T22:57:52.322Z,12.06
2019-03-16T23:02:54.422Z,12.03
2019-03-16T23:07:56.742Z,11.93
2019-03-16T23:12:58.824Z,12.09
2019-03-16T23:18:02.385Z,12.19
2019-03-16T23:23:06.381Z,12.33
2019-03-16T23:28:08.567Z,12.32
2019-03-16T23:33:11.755Z,12.25
2019-03-16T23:38:16.570Z,12.47
2019-03-16T23:43:20.064Z,12.37
2019-03-16T23:48:25.410Z,12.20
2019-03-16T23:53:29.506Z,12.34
2019-03-16T23:58:31.808Z,12.49
